Rosanna A — ILTL — position and weather

sailwx.info

Track history (hours):
 
Tides and Currents Weather Stations Pressure Air Temp Water Temp Dewpoint Dewpoint Depression Visibility Wind Speed Wind Dir Waves Ship Positions

Rosanna A

Last reported at 2018-Nov-11 02:32 UTC. Time now 2018-Nov-17 04:39 UTC.
Position N 38°15' E 013°03'.

Length 63 m; draft 4.8 m.

Type: Ship. MMSI: 247508000.

Date/timePositionNaut miles runAvg speedWind from/ knotsBaromVisibWave heightAir tempDewpointWater temp
2018-Nov-11 02:32N 38°15' E 013°03'4 8.0
2018-Nov-11 02:02N 38°14' E 012°58'4 8.0
2018-Nov-11 01:32N 38°14' E 012°53'7 8.0
2018-Nov-11 00:42N 38°13' E 012°44'4 0.2
2018-Nov-10 02:11N 38°15' E 012°49'2 7.2
2018-Nov-10 01:51N 38°16' E 012°52'2 7.2
2018-Nov-10 01:31N 38°16' E 012°55'4 7.5
2018-Nov-10 01:02N 38°16' E 012°60'4 7.7
2018-Nov-10 00:32N 38°16' E 013°04'4 7.9
2018-Nov-10 00:02N 38°17' E 013°09'4 7.9
2018-Nov-09 23:32N 38°17' E 013°14'4 7.4
2018-Nov-09 23:02N 38°17' E 013°19'4 7.4
2018-Nov-09 22:32N 38°15' E 013°23'4 7.7
2018-Nov-09 22:02N 38°12' E 013°26'3 7.0
2018-Nov-09 21:32N 38°08' E 013°26'3 5.4
2018-Nov-09 21:01N 38°08' E 013°22'0 0.0
2018-Nov-09 20:30N 38°08' E 013°22'0 0.0
2018-Nov-09 20:00N 38°08' E 013°22'0 0.0
2018-Nov-09 19:30N 38°08' E 013°22'0 0.0
2018-Nov-09 19:00N 38°08' E 013°22'0 0.0
2018-Nov-09 18:30N 38°08' E 013°22'0 0.0
2018-Nov-09 18:00N 38°08' E 013°22'0 0.0
2018-Nov-09 17:30N 38°08' E 013°22'0 0.0
2018-Nov-09 17:00N 38°08' E 013°22'0 0.0
2018-Nov-09 16:30N 38°08' E 013°22'0 0.0
2018-Nov-09 16:00N 38°08' E 013°22'0 0.0
2018-Nov-09 15:30N 38°08' E 013°22'0 0.0
2018-Nov-09 15:00N 38°08' E 013°22'0 0.0
2018-Nov-09 14:30N 38°08' E 013°22'0 0.0
2018-Nov-09 14:00N 38°08' E 013°22'0 0.0
2018-Nov-09 13:30N 38°08' E 013°22'0 0.0
2018-Nov-09 13:00N 38°08' E 013°22'0 0.0
2018-Nov-09 12:30N 38°08' E 013°22'0 0.0
2018-Nov-09 12:00N 38°08' E 013°22'0 0.0
2018-Nov-09 11:30N 38°08' E 013°22'0 0.0
2018-Nov-09 11:00N 38°08' E 013°22'0 0.0
2018-Nov-09 10:27N 38°08' E 013°22'0 0.0
2018-Nov-09 09:54N 38°08' E 013°22'0 0.0
2018-Nov-09 09:30N 38°08' E 013°22'0 0.0
2018-Nov-09 09:00N 38°08' E 013°22'0 0.0
2018-Nov-09 08:30N 38°08' E 013°22'0 0.0
2018-Nov-09 08:00N 38°08' E 013°22'0 0.0
2018-Nov-09 07:30N 38°08' E 013°22'0 0.0
2018-Nov-09 07:00N 38°08' E 013°22'0 0.0
2018-Nov-09 06:30N 38°08' E 013°22'0 0.0
2018-Nov-09 06:00N 38°08' E 013°22'0 0.0
2018-Nov-09 05:32N 38°08' E 013°22'0 0.0
2018-Nov-09 05:02N 38°08' E 013°22'0 0.0
2018-Nov-09 04:32N 38°08' E 013°22'0 0.0
2018-Nov-09 04:02N 38°08' E 013°22'0 0.0
2018-Nov-09 03:32N 38°08' E 013°22'0 0.0
2018-Nov-09 03:02N 38°08' E 013°22'0 0.0
2018-Nov-09 02:32N 38°08' E 013°22'0 0.0
2018-Nov-09 02:02N 38°08' E 013°22'0 0.0
2018-Nov-09 01:32N 38°08' E 013°22'0 0.0
2018-Nov-09 01:02N 38°08' E 013°22'0 0.0
2018-Nov-09 00:32N 38°08' E 013°22'0 0.0
2018-Nov-09 00:02N 38°08' E 013°22'0 0.0
2018-Nov-08 23:32N 38°08' E 013°22'0 0.0
2018-Nov-08 23:02N 38°08' E 013°22'0 0.0
2018-Nov-08 22:32N 38°08' E 013°22'0 0.0
2018-Nov-08 22:02N 38°08' E 013°22'0 0.0
2018-Nov-08 21:32N 38°08' E 013°22'0 0.0
2018-Nov-08 21:02N 38°08' E 013°22'0 0.0
2018-Nov-08 20:32N 38°08' E 013°22'0 0.0
2018-Nov-08 20:02N 38°08' E 013°22'0 0.0
2018-Nov-08 19:32N 38°08' E 013°22'0 0.0
2018-Nov-08 19:02N 38°08' E 013°22'0 0.0
2018-Nov-08 18:32N 38°08' E 013°22'0 0.0
2018-Nov-08 18:02N 38°08' E 013°22'0 0.0
2018-Nov-08 17:32N 38°08' E 013°22'0 0.0
2018-Nov-08 16:59N 38°08' E 013°22'0 0.0
2018-Nov-08 16:32N 38°08' E 013°22'0 0.0
2018-Nov-08 16:02N 38°08' E 013°22'0 0.0
2018-Nov-08 15:32N 38°08' E 013°22'0 0.0
2018-Nov-08 15:02N 38°08' E 013°22'0 0.0
2018-Nov-08 14:32N 38°08' E 013°22'0 0.0
2018-Nov-08 14:02N 38°08' E 013°22'0 0.0
2018-Nov-08 13:31N 38°08' E 013°22'0 0.0
2018-Nov-08 13:01N 38°08' E 013°22'0 0.0
2018-Nov-08 12:31N 38°08' E 013°22'0 0.0
2018-Nov-08 12:01N 38°08' E 013°22'0 0.0
2018-Nov-08 11:31N 38°08' E 013°22'0 0.0
2018-Nov-08 10:58N 38°08' E 013°22'0 0.0
2018-Nov-08 10:31N 38°08' E 013°22'0 0.0
2018-Nov-08 10:01N 38°08' E 013°22'0 0.0
2018-Nov-08 09:31N 38°08' E 013°22'0 0.0
2018-Nov-08 09:01N 38°08' E 013°22'0 0.0
2018-Nov-08 08:31N 38°08' E 013°22'0 0.0
2018-Nov-08 08:01N 38°08' E 013°22'0 0.0
2018-Nov-08 07:28N 38°08' E 013°22'0 0.0
2018-Nov-08 06:58N 38°08' E 013°22'0 0.0
2018-Nov-08 06:31N 38°08' E 013°22'0 0.0
2018-Nov-08 06:01N 38°08' E 013°22'0 0.0
2018-Nov-08 05:31N 38°08' E 013°22'0 0.0
2018-Nov-08 05:01N 38°08' E 013°22'0 0.0
2018-Nov-08 04:31N 38°08' E 013°22'0 0.0
2018-Nov-08 04:01N 38°08' E 013°22'0 0.0
2018-Nov-08 03:31N 38°08' E 013°22'0 0.0
2018-Nov-08 03:01N 38°08' E 013°22'0 0.0
2018-Nov-08 02:31N 38°08' E 013°22'0 0.0
2018-Nov-08 02:01N 38°08' E 013°22'0 0.0
2018-Nov-08 01:31N 38°08' E 013°22'0 0.0
2018-Nov-08 01:01N 38°08' E 013°22'0 0.0
2018-Nov-08 00:43N 38°08' E 013°22'0 0.0
2018-Nov-08 00:31N 38°08' E 013°22'0 0.0
2018-Nov-08 00:28N 38°08' E 013°22'0 0.0
2018-Nov-08 00:01N 38°08' E 013°22'0 0.0
2018-Nov-07 23:31N 38°08' E 013°22'0 0.0
2018-Nov-07 23:01N 38°08' E 013°22'0 0.0
2018-Nov-07 22:28N 38°08' E 013°22'0 0.0
2018-Nov-07 22:01N 38°08' E 013°22'0 0.0
2018-Nov-07 21:31N 38°08' E 013°22'0 0.0
2018-Nov-07 21:01N 38°08' E 013°22'0 0.0
2018-Nov-07 20:31N 38°08' E 013°22'0 0.0
2018-Nov-07 20:01N 38°08' E 013°22'0 0.0
2018-Nov-07 19:31N 38°08' E 013°22'0 0.0
2018-Nov-07 19:01N 38°08' E 013°22'0 0.0
2018-Nov-07 18:31N 38°08' E 013°22'0 0.0
2018-Nov-07 18:01N 38°08' E 013°22'0 0.0
2018-Nov-07 17:31N 38°08' E 013°22'0 0.0
2018-Nov-07 17:01N 38°08' E 013°22'0 0.0
2018-Nov-07 16:31N 38°08' E 013°22'0 0.0
2018-Nov-07 16:01N 38°08' E 013°22'0 0.0
2018-Nov-07 15:31N 38°08' E 013°22'0 0.0
2018-Nov-07 15:01N 38°08' E 013°22'0 0.0
2018-Nov-07 14:31N 38°08' E 013°22'0 0.0
2018-Nov-07 14:01N 38°08' E 013°22'0 0.0
2018-Nov-07 13:31N 38°08' E 013°22'0 0.0
2018-Nov-07 13:01N 38°08' E 013°22'0 0.0
2018-Nov-07 12:31N 38°08' E 013°22'0 0.0
2018-Nov-07 12:01N 38°08' E 013°22'0 0.0
2018-Nov-07 11:31N 38°08' E 013°22'0 0.0
2018-Nov-07 11:01N 38°08' E 013°22'0 0.0
2018-Nov-07 10:31N 38°08' E 013°22'0 0.0
2018-Nov-07 10:01N 38°08' E 013°22'0 0.0
2018-Nov-07 09:31N 38°08' E 013°22'0 0.0
2018-Nov-07 09:01N 38°08' E 013°22'0 0.0
2018-Nov-07 08:31N 38°08' E 013°22'0 0.0
2018-Nov-07 08:01N 38°08' E 013°22'0 0.0
2018-Nov-07 07:31N 38°08' E 013°22'0 0.0
2018-Nov-07 07:01N 38°08' E 013°22'0 0.0
2018-Nov-07 06:31N 38°08' E 013°22'0 0.0
2018-Nov-07 06:01N 38°08' E 013°22'0 0.0
2018-Nov-07 05:32N 38°08' E 013°22'0 1.0
2018-Nov-07 05:03N 38°07' E 013°23'3 6.4
2018-Nov-07 04:32N 38°10' E 013°25'28 1.1
2018-Nov-06 02:18N 38°15' E 012°50'2 6.9
2018-Nov-06 02:00N 38°15' E 012°53'3 6.7
2018-Nov-06 01:30N 38°16' E 012°57'7 7.1
2018-Nov-06 00:30N 38°16' E 013°06'7 7.2
2018-Nov-05 23:30N 38°17' E 013°15'3 7.4
2018-Nov-05 23:03N 38°17' E 013°20'0 7.4
2018-Nov-05 23:00N 38°17' E 013°20'4 7.2
2018-Nov-05 22:30N 38°15' E 013°24'3 7.3
2018-Nov-05 22:03N 38°12' E 013°26'0 7.4
2018-Nov-05 22:00N 38°11' E 013°26'3 6.6
2018-Nov-05 21:30N 38°08' E 013°25'3 5.8
2018-Nov-05 21:03N 38°08' E 013°22'0 1.2
2018-Nov-05 21:00N 38°08' E 013°22'0 0.0
2018-Nov-05 20:30N 38°08' E 013°22'0 0.0
2018-Nov-05 20:03N 38°08' E 013°22'0 0.0
2018-Nov-05 20:00N 38°08' E 013°22'0 0.0
2018-Nov-05 19:30N 38°08' E 013°22'0 0.0
2018-Nov-05 19:03N 38°08' E 013°22'0 0.1
2018-Nov-05 19:00N 38°08' E 013°22'0 0.0
2018-Nov-05 18:30N 38°08' E 013°22'0 0.0
2018-Nov-05 18:03N 38°08' E 013°22'0 0.0
2018-Nov-05 18:00N 38°08' E 013°22'0 0.0
2018-Nov-05 17:30N 38°08' E 013°22'0 0.0
2018-Nov-05 17:03N 38°08' E 013°22'0 0.1
2018-Nov-05 17:00N 38°08' E 013°22'0 0.0
2018-Nov-05 16:30N 38°08' E 013°22'0 0.0
2018-Nov-05 16:03N 38°08' E 013°22'0 0.1
2018-Nov-05 16:00N 38°08' E 013°22'0 0.0
2018-Nov-05 15:30N 38°08' E 013°22'0 0.0
2018-Nov-05 15:03N 38°08' E 013°22'0 0.0
2018-Nov-05 15:00N 38°08' E 013°22'0 0.0
2018-Nov-05 14:30N 38°08' E 013°22'0 0.0
2018-Nov-05 14:03N 38°08' E 013°22'0 0.0
2018-Nov-05 14:00N 38°08' E 013°22'0 0.0
2018-Nov-05 13:03N 38°08' E 013°22'0 0.0
2018-Nov-05 13:00N 38°08' E 013°22'0 0.0
2018-Nov-05 12:30N 38°08' E 013°22'0 0.0
2018-Nov-05 12:03N 38°08' E 013°22'0 0.0
2018-Nov-05 12:00N 38°08' E 013°22'0 0.0
2018-Nov-05 11:30N 38°08' E 013°22'0 0.0
2018-Nov-05 11:03N 38°08' E 013°22'0 0.0
2018-Nov-05 11:00N 38°08' E 013°22'0 0.0
2018-Nov-05 10:30N 38°08' E 013°22'0 0.0
2018-Nov-05 10:03N 38°08' E 013°22'0 0.0
2018-Nov-05 10:00N 38°08' E 013°22'0 0.0
2018-Nov-05 09:30N 38°08' E 013°22'1 2.4
2018-Nov-05 09:03N 38°08' E 013°24'0 8.6
2018-Nov-05 09:00N 38°08' E 013°24'4 8.3
2018-Nov-05 08:30N 38°12' E 013°25'4 8.7
2018-Nov-05 08:03N 38°15' E 013°22'0 8.8
2018-Nov-05 08:00N 38°16' E 013°22'4 8.6
2018-Nov-05 07:30N 38°17' E 013°17'4 8.7
2018-Nov-05 07:03N 38°17' E 013°12'0 9.0
2018-Nov-05 07:00N 38°16' E 013°11'4 8.9
2018-Nov-05 06:30N 38°16' E 013°06'4 9.0
2018-Nov-05 06:03N 38°15' E 013°01'0 9.0
2018-Nov-05 06:00N 38°15' E 013°00'5 9.0
2018-Nov-05 05:30N 38°14' E 012°54'9 9.0
2018-Nov-05 04:32N 38°13' E 012°43'5 0.2
2018-Nov-04 02:42N 38°15' E 012°49'2 6.6
2018-Nov-04 02:24N 38°16' E 012°52'2 6.6
2018-Nov-04 02:03N 38°16' E 012°55'1 6.6
2018-Nov-04 01:56N 38°16' E 012°56'3 6.7
2018-Nov-04 01:30N 38°16' E 012°60'3 6.9
2018-Nov-04 01:03N 38°16' E 013°03'0 7.1
2018-Nov-04 01:00N 38°16' E 013°04'3 6.9
2018-Nov-04 00:30N 38°16' E 013°08'3 6.8
2018-Nov-04 00:03N 38°16' E 013°12'0 6.8
2018-Nov-04 00:00N 38°16' E 013°13'3 6.5
2018-Nov-03 23:30N 38°16' E 013°17'3 6.3
2018-Nov-03 23:03N 38°16' E 013°20'0 6.3
2018-Nov-03 23:00N 38°16' E 013°21'3 5.4
2018-Nov-03 22:30N 38°15' E 013°24'7 3.6
2018-Nov-03 20:30N 38°08' E 013°22'0 0.3
2018-Nov-03 20:01N 38°08' E 013°22'0 0.0
2018-Nov-03 19:58N 38°08' E 013°22'0 0.0
2018-Nov-03 19:19N 38°08' E 013°22'0 0.0
2018-Nov-03 19:01N 38°08' E 013°22'0 0.0
2018-Nov-03 18:58N 38°08' E 013°22'0 0.0
2018-Nov-03 18:19N 38°08' E 013°22'0 0.0
2018-Nov-03 18:01N 38°08' E 013°22'0 0.0
2018-Nov-03 17:58N 38°08' E 013°22'0 0.0
2018-Nov-03 17:25N 38°08' E 013°22'0 0.0
2018-Nov-03 17:01N 38°08' E 013°22'0 0.0
2018-Nov-03 16:58N 38°08' E 013°22'0 0.0
2018-Nov-03 16:28N 38°08' E 013°22'0 0.0
2018-Nov-03 16:01N 38°08' E 013°22'0 0.2
2018-Nov-03 15:58N 38°08' E 013°22'0 0.0
2018-Nov-03 15:28N 38°08' E 013°22'0 0.0
2018-Nov-03 15:01N 38°08' E 013°22'0 0.0
2018-Nov-03 14:58N 38°08' E 013°22'0 0.0
2018-Nov-03 14:28N 38°08' E 013°22'0 0.0
2018-Nov-03 14:01N 38°08' E 013°22'0 0.0
2018-Nov-03 13:58N 38°08' E 013°22'0 0.0
2018-Nov-03 13:28N 38°08' E 013°22'0 0.0
2018-Nov-03 13:01N 38°08' E 013°22'0 0.0
2018-Nov-03 12:58N 38°08' E 013°22'0 0.0
2018-Nov-03 12:28N 38°08' E 013°22'0 0.0
2018-Nov-03 12:01N 38°08' E 013°22'0 0.0
2018-Nov-03 11:58N 38°08' E 013°22'0 0.0
2018-Nov-03 11:28N 38°08' E 013°22'0 0.0
2018-Nov-03 11:01N 38°08' E 013°22'0 0.0
2018-Nov-03 10:58N 38°08' E 013°22'0 0.0
2018-Nov-03 10:28N 38°08' E 013°22'0 0.0
2018-Nov-03 10:01N 38°08' E 013°22'0 0.0
2018-Nov-03 09:58N 38°08' E 013°22'0 0.0
2018-Nov-03 09:28N 38°08' E 013°22'0 0.0
2018-Nov-03 09:01N 38°08' E 013°22'0 0.0
2018-Nov-03 08:58N 38°08' E 013°22'0 0.0
2018-Nov-03 08:28N 38°08' E 013°22'0 0.0
2018-Nov-03 08:01N 38°08' E 013°22'0 0.0
2018-Nov-03 07:58N 38°08' E 013°22'0 0.0
2018-Nov-03 07:28N 38°08' E 013°22'0 0.0
2018-Nov-03 07:01N 38°08' E 013°22'0 0.0
2018-Nov-03 06:58N 38°08' E 013°22'0 0.0
2018-Nov-03 06:28N 38°08' E 013°22'0 0.0
2018-Nov-03 06:01N 38°08' E 013°22'0 0.0
2018-Nov-03 05:58N 38°08' E 013°22'0 0.0
2018-Nov-03 05:28N 38°08' E 013°22'0 0.0
2018-Nov-03 05:01N 38°08' E 013°22'0 0.0
2018-Nov-03 04:58N 38°08' E 013°22'0 0.0
2018-Nov-03 04:28N 38°08' E 013°22'0 0.0
2018-Nov-03 04:01N 38°08' E 013°22'0 0.0
2018-Nov-03 03:58N 38°08' E 013°22'0 0.0
2018-Nov-03 03:28N 38°08' E 013°22'0 0.0
2018-Nov-03 03:01N 38°08' E 013°22'0 0.0
2018-Nov-03 02:58N 38°08' E 013°22'0 0.0
2018-Nov-03 02:28N 38°08' E 013°22'0 0.0
2018-Nov-03 02:01N 38°08' E 013°22'0 0.0
2018-Nov-03 01:58N 38°08' E 013°22'0 0.0
2018-Nov-03 01:28N 38°08' E 013°22'0 0.0
2018-Nov-03 01:01N 38°08' E 013°22'0 0.0
2018-Nov-03 00:58N 38°08' E 013°22'0 0.0
2018-Nov-03 00:28N 38°08' E 013°22'0 0.0
2018-Nov-03 00:01N 38°08' E 013°22'0 0.0
2018-Nov-02 23:58N 38°08' E 013°22'0 0.0
2018-Nov-02 23:28N 38°08' E 013°22'0 0.0
2018-Nov-02 23:01N 38°08' E 013°22'0 0.0
2018-Nov-02 22:58N 38°08' E 013°22'0 0.0
2018-Nov-02 22:28N 38°08' E 013°22'0 0.0
2018-Nov-02 22:01N 38°08' E 013°22'0 0.0
2018-Nov-02 21:58N 38°08' E 013°22'0 0.0
2018-Nov-02 21:28N 38°08' E 013°22'0 0.0
2018-Nov-02 21:01N 38°08' E 013°22'0 0.0
2018-Nov-02 20:58N 38°08' E 013°22'0 0.0
2018-Nov-02 20:28N 38°08' E 013°22'0 0.0
2018-Nov-02 20:01N 38°08' E 013°22'0 0.0
2018-Nov-02 19:58N 38°08' E 013°22'0 0.0
2018-Nov-02 19:28N 38°08' E 013°22'0 0.0
2018-Nov-02 19:01N 38°08' E 013°22'0 0.0
2018-Nov-02 18:58N 38°08' E 013°22'0 0.0
2018-Nov-02 18:28N 38°08' E 013°22'0 0.0
2018-Nov-02 17:58N 38°08' E 013°22'0 0.0
2018-Nov-02 17:28N 38°08' E 013°22'0 0.0
2018-Nov-02 17:01N 38°08' E 013°22'0 0.0
2018-Nov-02 16:58N 38°08' E 013°22'0 0.0
2018-Nov-02 16:28N 38°08' E 013°22'0 0.0
2018-Nov-02 16:01N 38°08' E 013°22'0 0.0
2018-Nov-02 15:58N 38°08' E 013°22'0 0.0
2018-Nov-02 15:28N 38°08' E 013°22'0 0.0
2018-Nov-02 15:01N 38°08' E 013°22'0 0.0
2018-Nov-02 14:58N 38°08' E 013°22'0 0.0
2018-Nov-02 14:28N 38°08' E 013°22'0 0.0
2018-Nov-02 13:58N 38°08' E 013°22'0 0.0
2018-Nov-02 13:28N 38°08' E 013°22'0 0.0
2018-Nov-02 13:01N 38°08' E 013°22'0 0.0
2018-Nov-02 12:58N 38°08' E 013°22'0 0.0
2018-Nov-02 12:28N 38°08' E 013°22'0 0.0
2018-Nov-02 12:01N 38°08' E 013°22'0 0.0
2018-Nov-02 11:58N 38°08' E 013°22'0 0.0
2018-Nov-02 11:28N 38°08' E 013°22'0 0.0
2018-Nov-02 11:01N 38°08' E 013°22'0 0.0
2018-Nov-02 10:58N 38°08' E 013°22'0 0.0
2018-Nov-02 10:28N 38°08' E 013°22'0 0.0
2018-Nov-02 10:01N 38°08' E 013°22'0 0.0
2018-Nov-02 09:58N 38°08' E 013°22'0 0.0
2018-Nov-02 09:28N 38°08' E 013°22'0 0.0
2018-Nov-02 09:01N 38°08' E 013°22'0 0.0
2018-Nov-02 08:55N 38°08' E 013°22'0 0.0
2018-Nov-02 08:28N 38°08' E 013°22'0 0.0
2018-Nov-02 08:01N 38°08' E 013°22'0 0.0
2018-Nov-02 07:58N 38°08' E 013°22'0 0.0
2018-Nov-02 07:28N 38°08' E 013°22'0 0.0
2018-Nov-02 06:40N 38°08' E 013°22'0 0.0
2018-Nov-02 06:28N 38°08' E 013°22'0 0.0
2018-Nov-02 06:01N 38°08' E 013°22'0 0.0
2018-Nov-02 05:58N 38°08' E 013°22'0 0.0
2018-Nov-02 05:28N 38°08' E 013°22'0 1.2
2018-Nov-02 05:03N 38°07' E 013°23'0 5.9
2018-Nov-02 05:00N 38°07' E 013°23'3 7.0
2018-Nov-02 04:30N 38°11' E 013°25'3 7.3
2018-Nov-02 04:03N 38°14' E 013°23'0 7.7
2018-Nov-02 04:00N 38°14' E 013°23'4 7.1
2018-Nov-02 03:30N 38°17' E 013°21'3 7.5
2018-Nov-02 03:03N 38°17' E 013°17'0 8.2
2018-Nov-02 03:00N 38°17' E 013°16'4 8.2
2018-Nov-02 02:30N 38°15' E 013°12'4 8.1
2018-Nov-02 02:02N 38°15' E 013°07'0 8.1
2018-Nov-02 02:00N 38°15' E 013°06'4 8.0
2018-Nov-02 01:30N 38°15' E 013°01'4 8.2
2018-Nov-02 01:02N 38°14' E 012°57'0 8.1
2018-Nov-02 01:00N 38°14' E 012°56'1 8.1
2018-Nov-02 00:56N 38°14' E 012°55'3 8.0
2018-Nov-02 00:32N 38°14' E 012°51'0 7.9
2018-Nov-02 00:30N 38°14' E 012°51'  
Track history (hours):
 
Tides and Currents Weather Stations Pressure Air Temp Water Temp Dewpoint Dewpoint Depression Visibility Wind Speed Wind Dir Waves Ship Positions

Rosanna A

Last reported at 2018-Nov-11 02:32 UTC. Time now 2018-Nov-17 04:39 UTC.
Position N 38°15' E 013°03'.

Length 63 m; draft 4.8 m.

Type: Ship. MMSI: 247508000.

Date/timePositionNaut miles runAvg speedWind from/ knotsBaromVisibWave heightAir tempDewpointWater temp
2018-Nov-11 02:32N 38°15' E 013°03'4 8.0
2018-Nov-11 02:02N 38°14' E 012°58'4 8.0
2018-Nov-11 01:32N 38°14' E 012°53'7 8.0
2018-Nov-11 00:42N 38°13' E 012°44'4 0.2
2018-Nov-10 02:11N 38°15' E 012°49'2 7.2
2018-Nov-10 01:51N 38°16' E 012°52'2 7.2
2018-Nov-10 01:31N 38°16' E 012°55'4 7.5
2018-Nov-10 01:02N 38°16' E 012°60'4 7.7
2018-Nov-10 00:32N 38°16' E 013°04'4 7.9
2018-Nov-10 00:02N 38°17' E 013°09'4 7.9
2018-Nov-09 23:32N 38°17' E 013°14'4 7.4
2018-Nov-09 23:02N 38°17' E 013°19'4 7.4
2018-Nov-09 22:32N 38°15' E 013°23'4 7.7
2018-Nov-09 22:02N 38°12' E 013°26'3 7.0
2018-Nov-09 21:32N 38°08' E 013°26'3 5.4
2018-Nov-09 21:01N 38°08' E 013°22'0 0.0
2018-Nov-09 20:30N 38°08' E 013°22'0 0.0
2018-Nov-09 20:00N 38°08' E 013°22'0 0.0
2018-Nov-09 19:30N 38°08' E 013°22'0 0.0
2018-Nov-09 19:00N 38°08' E 013°22'0 0.0
2018-Nov-09 18:30N 38°08' E 013°22'0 0.0
2018-Nov-09 18:00N 38°08' E 013°22'0 0.0
2018-Nov-09 17:30N 38°08' E 013°22'0 0.0
2018-Nov-09 17:00N 38°08' E 013°22'0 0.0
2018-Nov-09 16:30N 38°08' E 013°22'0 0.0
2018-Nov-09 16:00N 38°08' E 013°22'0 0.0
2018-Nov-09 15:30N 38°08' E 013°22'0 0.0
2018-Nov-09 15:00N 38°08' E 013°22'0 0.0
2018-Nov-09 14:30N 38°08' E 013°22'0 0.0
2018-Nov-09 14:00N 38°08' E 013°22'0 0.0
2018-Nov-09 13:30N 38°08' E 013°22'0 0.0
2018-Nov-09 13:00N 38°08' E 013°22'0 0.0
2018-Nov-09 12:30N 38°08' E 013°22'0 0.0
2018-Nov-09 12:00N 38°08' E 013°22'0 0.0
2018-Nov-09 11:30N 38°08' E 013°22'0 0.0
2018-Nov-09 11:00N 38°08' E 013°22'0 0.0
2018-Nov-09 10:27N 38°08' E 013°22'0 0.0
2018-Nov-09 09:54N 38°08' E 013°22'0 0.0
2018-Nov-09 09:30N 38°08' E 013°22'0 0.0
2018-Nov-09 09:00N 38°08' E 013°22'0 0.0
2018-Nov-09 08:30N 38°08' E 013°22'0 0.0
2018-Nov-09 08:00N 38°08' E 013°22'0 0.0
2018-Nov-09 07:30N 38°08' E 013°22'0 0.0
2018-Nov-09 07:00N 38°08' E 013°22'0 0.0
2018-Nov-09 06:30N 38°08' E 013°22'0 0.0
2018-Nov-09 06:00N 38°08' E 013°22'0 0.0
2018-Nov-09 05:32N 38°08' E 013°22'0 0.0
2018-Nov-09 05:02N 38°08' E 013°22'0 0.0
2018-Nov-09 04:32N 38°08' E 013°22'0 0.0
2018-Nov-09 04:02N 38°08' E 013°22'0 0.0
2018-Nov-09 03:32N 38°08' E 013°22'0 0.0
2018-Nov-09 03:02N 38°08' E 013°22'0 0.0
2018-Nov-09 02:32N 38°08' E 013°22'0 0.0
2018-Nov-09 02:02N 38°08' E 013°22'0 0.0
2018-Nov-09 01:32N 38°08' E 013°22'0 0.0
2018-Nov-09 01:02N 38°08' E 013°22'0 0.0
2018-Nov-09 00:32N 38°08' E 013°22'0 0.0
2018-Nov-09 00:02N 38°08' E 013°22'0 0.0
2018-Nov-08 23:32N 38°08' E 013°22'0 0.0
2018-Nov-08 23:02N 38°08' E 013°22'0 0.0
2018-Nov-08 22:32N 38°08' E 013°22'0 0.0
2018-Nov-08 22:02N 38°08' E 013°22'0 0.0
2018-Nov-08 21:32N 38°08' E 013°22'0 0.0
2018-Nov-08 21:02N 38°08' E 013°22'0 0.0
2018-Nov-08 20:32N 38°08' E 013°22'0 0.0
2018-Nov-08 20:02N 38°08' E 013°22'0 0.0
2018-Nov-08 19:32N 38°08' E 013°22'0 0.0
2018-Nov-08 19:02N 38°08' E 013°22'0 0.0
2018-Nov-08 18:32N 38°08' E 013°22'0 0.0
2018-Nov-08 18:02N 38°08' E 013°22'0 0.0
2018-Nov-08 17:32N 38°08' E 013°22'0 0.0
2018-Nov-08 16:59N 38°08' E 013°22'0 0.0
2018-Nov-08 16:32N 38°08' E 013°22'0 0.0
2018-Nov-08 16:02N 38°08' E 013°22'0 0.0
2018-Nov-08 15:32N 38°08' E 013°22'0 0.0
2018-Nov-08 15:02N 38°08' E 013°22'0 0.0
2018-Nov-08 14:32N 38°08' E 013°22'0 0.0
2018-Nov-08 14:02N 38°08' E 013°22'0 0.0
2018-Nov-08 13:31N 38°08' E 013°22'0 0.0
2018-Nov-08 13:01N 38°08' E 013°22'0 0.0
2018-Nov-08 12:31N 38°08' E 013°22'0 0.0
2018-Nov-08 12:01N 38°08' E 013°22'0 0.0
2018-Nov-08 11:31N 38°08' E 013°22'0 0.0
2018-Nov-08 10:58N 38°08' E 013°22'0 0.0
2018-Nov-08 10:31N 38°08' E 013°22'0 0.0
2018-Nov-08 10:01N 38°08' E 013°22'0 0.0
2018-Nov-08 09:31N 38°08' E 013°22'0 0.0
2018-Nov-08 09:01N 38°08' E 013°22'0 0.0
2018-Nov-08 08:31N 38°08' E 013°22'0 0.0
2018-Nov-08 08:01N 38°08' E 013°22'0 0.0
2018-Nov-08 07:28N 38°08' E 013°22'0 0.0
2018-Nov-08 06:58N 38°08' E 013°22'0 0.0
2018-Nov-08 06:31N 38°08' E 013°22'0 0.0
2018-Nov-08 06:01N 38°08' E 013°22'0 0.0
2018-Nov-08 05:31N 38°08' E 013°22'0 0.0
2018-Nov-08 05:01N 38°08' E 013°22'0 0.0
2018-Nov-08 04:31N 38°08' E 013°22'0 0.0
2018-Nov-08 04:01N 38°08' E 013°22'0 0.0
2018-Nov-08 03:31N 38°08' E 013°22'0 0.0
2018-Nov-08 03:01N 38°08' E 013°22'0 0.0
2018-Nov-08 02:31N 38°08' E 013°22'0 0.0
2018-Nov-08 02:01N 38°08' E 013°22'0 0.0
2018-Nov-08 01:31N 38°08' E 013°22'0 0.0
2018-Nov-08 01:01N 38°08' E 013°22'0 0.0
2018-Nov-08 00:43N 38°08' E 013°22'0 0.0
2018-Nov-08 00:31N 38°08' E 013°22'0 0.0
2018-Nov-08 00:28N 38°08' E 013°22'0 0.0
2018-Nov-08 00:01N 38°08' E 013°22'0 0.0
2018-Nov-07 23:31N 38°08' E 013°22'0 0.0
2018-Nov-07 23:01N 38°08' E 013°22'0 0.0
2018-Nov-07 22:28N 38°08' E 013°22'0 0.0
2018-Nov-07 22:01N 38°08' E 013°22'0 0.0
2018-Nov-07 21:31N 38°08' E 013°22'0 0.0
2018-Nov-07 21:01N 38°08' E 013°22'0 0.0
2018-Nov-07 20:31N 38°08' E 013°22'0 0.0
2018-Nov-07 20:01N 38°08' E 013°22'0 0.0
2018-Nov-07 19:31N 38°08' E 013°22'0 0.0
2018-Nov-07 19:01N 38°08' E 013°22'0 0.0
2018-Nov-07 18:31N 38°08' E 013°22'0 0.0
2018-Nov-07 18:01N 38°08' E 013°22'0 0.0
2018-Nov-07 17:31N 38°08' E 013°22'0 0.0
2018-Nov-07 17:01N 38°08' E 013°22'0 0.0
2018-Nov-07 16:31N 38°08' E 013°22'0 0.0
2018-Nov-07 16:01N 38°08' E 013°22'0 0.0
2018-Nov-07 15:31N 38°08' E 013°22'0 0.0
2018-Nov-07 15:01N 38°08' E 013°22'0 0.0
2018-Nov-07 14:31N 38°08' E 013°22'0 0.0
2018-Nov-07 14:01N 38°08' E 013°22'0 0.0
2018-Nov-07 13:31N 38°08' E 013°22'0 0.0
2018-Nov-07 13:01N 38°08' E 013°22'0 0.0
2018-Nov-07 12:31N 38°08' E 013°22'0 0.0
2018-Nov-07 12:01N 38°08' E 013°22'0 0.0
2018-Nov-07 11:31N 38°08' E 013°22'0 0.0
2018-Nov-07 11:01N 38°08' E 013°22'0 0.0
2018-Nov-07 10:31N 38°08' E 013°22'0 0.0
2018-Nov-07 10:01N 38°08' E 013°22'0 0.0
2018-Nov-07 09:31N 38°08' E 013°22'0 0.0
2018-Nov-07 09:01N 38°08' E 013°22'0 0.0
2018-Nov-07 08:31N 38°08' E 013°22'0 0.0
2018-Nov-07 08:01N 38°08' E 013°22'0 0.0
2018-Nov-07 07:31N 38°08' E 013°22'0 0.0
2018-Nov-07 07:01N 38°08' E 013°22'0 0.0
2018-Nov-07 06:31N 38°08' E 013°22'0 0.0
2018-Nov-07 06:01N 38°08' E 013°22'0 0.0
2018-Nov-07 05:32N 38°08' E 013°22'0 1.0
2018-Nov-07 05:03N 38°07' E 013°23'3 6.4
2018-Nov-07 04:32N 38°10' E 013°25'28 1.1
2018-Nov-06 02:18N 38°15' E 012°50'2 6.9
2018-Nov-06 02:00N 38°15' E 012°53'3 6.7
2018-Nov-06 01:30N 38°16' E 012°57'7 7.1
2018-Nov-06 00:30N 38°16' E 013°06'7 7.2
2018-Nov-05 23:30N 38°17' E 013°15'3 7.4
2018-Nov-05 23:03N 38°17' E 013°20'0 7.4
2018-Nov-05 23:00N 38°17' E 013°20'4 7.2
2018-Nov-05 22:30N 38°15' E 013°24'3 7.3
2018-Nov-05 22:03N 38°12' E 013°26'0 7.4
2018-Nov-05 22:00N 38°11' E 013°26'3 6.6
2018-Nov-05 21:30N 38°08' E 013°25'3 5.8
2018-Nov-05 21:03N 38°08' E 013°22'0 1.2
2018-Nov-05 21:00N 38°08' E 013°22'0 0.0
2018-Nov-05 20:30N 38°08' E 013°22'0 0.0
2018-Nov-05 20:03N 38°08' E 013°22'0 0.0
2018-Nov-05 20:00N 38°08' E 013°22'0 0.0
2018-Nov-05 19:30N 38°08' E 013°22'0 0.0
2018-Nov-05 19:03N 38°08' E 013°22'0 0.1
2018-Nov-05 19:00N 38°08' E 013°22'0 0.0
2018-Nov-05 18:30N 38°08' E 013°22'0 0.0
2018-Nov-05 18:03N 38°08' E 013°22'0 0.0
2018-Nov-05 18:00N 38°08' E 013°22'0 0.0
2018-Nov-05 17:30N 38°08' E 013°22'0 0.0
2018-Nov-05 17:03N 38°08' E 013°22'0 0.1
2018-Nov-05 17:00N 38°08' E 013°22'0 0.0
2018-Nov-05 16:30N 38°08' E 013°22'0 0.0
2018-Nov-05 16:03N 38°08' E 013°22'0 0.1
2018-Nov-05 16:00N 38°08' E 013°22'0 0.0
2018-Nov-05 15:30N 38°08' E 013°22'0 0.0
2018-Nov-05 15:03N 38°08' E 013°22'0 0.0
2018-Nov-05 15:00N 38°08' E 013°22'0 0.0
2018-Nov-05 14:30N 38°08' E 013°22'0 0.0
2018-Nov-05 14:03N 38°08' E 013°22'0 0.0
2018-Nov-05 14:00N 38°08' E 013°22'0 0.0
2018-Nov-05 13:03N 38°08' E 013°22'0 0.0
2018-Nov-05 13:00N 38°08' E 013°22'0 0.0
2018-Nov-05 12:30N 38°08' E 013°22'0 0.0
2018-Nov-05 12:03N 38°08' E 013°22'0 0.0
2018-Nov-05 12:00N 38°08' E 013°22'0 0.0
2018-Nov-05 11:30N 38°08' E 013°22'0 0.0
2018-Nov-05 11:03N 38°08' E 013°22'0 0.0
2018-Nov-05 11:00N 38°08' E 013°22'0 0.0
2018-Nov-05 10:30N 38°08' E 013°22'0 0.0
2018-Nov-05 10:03N 38°08' E 013°22'0 0.0
2018-Nov-05 10:00N 38°08' E 013°22'0 0.0
2018-Nov-05 09:30N 38°08' E 013°22'1 2.4
2018-Nov-05 09:03N 38°08' E 013°24'0 8.6
2018-Nov-05 09:00N 38°08' E 013°24'4 8.3
2018-Nov-05 08:30N 38°12' E 013°25'4 8.7
2018-Nov-05 08:03N 38°15' E 013°22'0 8.8
2018-Nov-05 08:00N 38°16' E 013°22'4 8.6
2018-Nov-05 07:30N 38°17' E 013°17'4 8.7
2018-Nov-05 07:03N 38°17' E 013°12'0 9.0
2018-Nov-05 07:00N 38°16' E 013°11'4 8.9
2018-Nov-05 06:30N 38°16' E 013°06'4 9.0
2018-Nov-05 06:03N 38°15' E 013°01'0 9.0
2018-Nov-05 06:00N 38°15' E 013°00'5 9.0
2018-Nov-05 05:30N 38°14' E 012°54'9 9.0
2018-Nov-05 04:32N 38°13' E 012°43'5 0.2
2018-Nov-04 02:42N 38°15' E 012°49'2 6.6
2018-Nov-04 02:24N 38°16' E 012°52'2 6.6
2018-Nov-04 02:03N 38°16' E 012°55'1 6.6
2018-Nov-04 01:56N 38°16' E 012°56'3 6.7
2018-Nov-04 01:30N 38°16' E 012°60'3 6.9
2018-Nov-04 01:03N 38°16' E 013°03'0 7.1
2018-Nov-04 01:00N 38°16' E 013°04'3 6.9
2018-Nov-04 00:30N 38°16' E 013°08'3 6.8
2018-Nov-04 00:03N 38°16' E 013°12'0 6.8
2018-Nov-04 00:00N 38°16' E 013°13'3 6.5
2018-Nov-03 23:30N 38°16' E 013°17'3 6.3
2018-Nov-03 23:03N 38°16' E 013°20'0 6.3
2018-Nov-03 23:00N 38°16' E 013°21'3 5.4
2018-Nov-03 22:30N 38°15' E 013°24'7 3.6
2018-Nov-03 20:30N 38°08' E 013°22'0 0.3
2018-Nov-03 20:01N 38°08' E 013°22'0 0.0
2018-Nov-03 19:58N 38°08' E 013°22'0 0.0
2018-Nov-03 19:19N 38°08' E 013°22'0 0.0
2018-Nov-03 19:01N 38°08' E 013°22'0 0.0
2018-Nov-03 18:58N 38°08' E 013°22'0 0.0
2018-Nov-03 18:19N 38°08' E 013°22'0 0.0
2018-Nov-03 18:01N 38°08' E 013°22'0 0.0
2018-Nov-03 17:58N 38°08' E 013°22'0 0.0
2018-Nov-03 17:25N 38°08' E 013°22'0 0.0
2018-Nov-03 17:01N 38°08' E 013°22'0 0.0
2018-Nov-03 16:58N 38°08' E 013°22'0 0.0
2018-Nov-03 16:28N 38°08' E 013°22'0 0.0
2018-Nov-03 16:01N 38°08' E 013°22'0 0.2
2018-Nov-03 15:58N 38°08' E 013°22'0 0.0
2018-Nov-03 15:28N 38°08' E 013°22'0 0.0
2018-Nov-03 15:01N 38°08' E 013°22'0 0.0
2018-Nov-03 14:58N 38°08' E 013°22'0 0.0
2018-Nov-03 14:28N 38°08' E 013°22'0 0.0
2018-Nov-03 14:01N 38°08' E 013°22'0 0.0
2018-Nov-03 13:58N 38°08' E 013°22'0 0.0
2018-Nov-03 13:28N 38°08' E 013°22'0 0.0
2018-Nov-03 13:01N 38°08' E 013°22'0 0.0
2018-Nov-03 12:58N 38°08' E 013°22'0 0.0
2018-Nov-03 12:28N 38°08' E 013°22'0 0.0
2018-Nov-03 12:01N 38°08' E 013°22'0 0.0
2018-Nov-03 11:58N 38°08' E 013°22'0 0.0
2018-Nov-03 11:28N 38°08' E 013°22'0 0.0
2018-Nov-03 11:01N 38°08' E 013°22'0 0.0
2018-Nov-03 10:58N 38°08' E 013°22'0 0.0
2018-Nov-03 10:28N 38°08' E 013°22'0 0.0
2018-Nov-03 10:01N 38°08' E 013°22'0 0.0
2018-Nov-03 09:58N 38°08' E 013°22'0 0.0
2018-Nov-03 09:28N 38°08' E 013°22'0 0.0
2018-Nov-03 09:01N 38°08' E 013°22'0 0.0
2018-Nov-03 08:58N 38°08' E 013°22'0 0.0
2018-Nov-03 08:28N 38°08' E 013°22'0 0.0
2018-Nov-03 08:01N 38°08' E 013°22'0 0.0
2018-Nov-03 07:58N 38°08' E 013°22'0 0.0
2018-Nov-03 07:28N 38°08' E 013°22'0 0.0
2018-Nov-03 07:01N 38°08' E 013°22'0 0.0
2018-Nov-03 06:58N 38°08' E 013°22'0 0.0
2018-Nov-03 06:28N 38°08' E 013°22'0 0.0
2018-Nov-03 06:01N 38°08' E 013°22'0 0.0
2018-Nov-03 05:58N 38°08' E 013°22'0 0.0
2018-Nov-03 05:28N 38°08' E 013°22'0 0.0
2018-Nov-03 05:01N 38°08' E 013°22'0 0.0
2018-Nov-03 04:58N 38°08' E 013°22'0 0.0
2018-Nov-03 04:28N 38°08' E 013°22'0 0.0
2018-Nov-03 04:01N 38°08' E 013°22'0 0.0
2018-Nov-03 03:58N 38°08' E 013°22'0 0.0
2018-Nov-03 03:28N 38°08' E 013°22'0 0.0
2018-Nov-03 03:01N 38°08' E 013°22'0 0.0
2018-Nov-03 02:58N 38°08' E 013°22'0 0.0
2018-Nov-03 02:28N 38°08' E 013°22'0 0.0
2018-Nov-03 02:01N 38°08' E 013°22'0 0.0
2018-Nov-03 01:58N 38°08' E 013°22'0 0.0
2018-Nov-03 01:28N 38°08' E 013°22'0 0.0
2018-Nov-03 01:01N 38°08' E 013°22'0 0.0
2018-Nov-03 00:58N 38°08' E 013°22'0 0.0
2018-Nov-03 00:28N 38°08' E 013°22'0 0.0
2018-Nov-03 00:01N 38°08' E 013°22'0 0.0
2018-Nov-02 23:58N 38°08' E 013°22'0 0.0
2018-Nov-02 23:28N 38°08' E 013°22'0 0.0
2018-Nov-02 23:01N 38°08' E 013°22'0 0.0
2018-Nov-02 22:58N 38°08' E 013°22'0 0.0
2018-Nov-02 22:28N 38°08' E 013°22'0 0.0
2018-Nov-02 22:01N 38°08' E 013°22'0 0.0
2018-Nov-02 21:58N 38°08' E 013°22'0 0.0
2018-Nov-02 21:28N 38°08' E 013°22'0 0.0
2018-Nov-02 21:01N 38°08' E 013°22'0 0.0
2018-Nov-02 20:58N 38°08' E 013°22'0 0.0
2018-Nov-02 20:28N 38°08' E 013°22'0 0.0
2018-Nov-02 20:01N 38°08' E 013°22'0 0.0
2018-Nov-02 19:58N 38°08' E 013°22'0 0.0
2018-Nov-02 19:28N 38°08' E 013°22'0 0.0
2018-Nov-02 19:01N 38°08' E 013°22'0 0.0
2018-Nov-02 18:58N 38°08' E 013°22'0 0.0
2018-Nov-02 18:28N 38°08' E 013°22'0 0.0
2018-Nov-02 17:58N 38°08' E 013°22'0 0.0
2018-Nov-02 17:28N 38°08' E 013°22'0 0.0
2018-Nov-02 17:01N 38°08' E 013°22'0 0.0
2018-Nov-02 16:58N 38°08' E 013°22'0 0.0
2018-Nov-02 16:28N 38°08' E 013°22'0 0.0
2018-Nov-02 16:01N 38°08' E 013°22'0 0.0
2018-Nov-02 15:58N 38°08' E 013°22'0 0.0
2018-Nov-02 15:28N 38°08' E 013°22'0 0.0
2018-Nov-02 15:01N 38°08' E 013°22'0 0.0
2018-Nov-02 14:58N 38°08' E 013°22'0 0.0
2018-Nov-02 14:28N 38°08' E 013°22'0 0.0
2018-Nov-02 13:58N 38°08' E 013°22'0 0.0
2018-Nov-02 13:28N 38°08' E 013°22'0 0.0
2018-Nov-02 13:01N 38°08' E 013°22'0 0.0
2018-Nov-02 12:58N 38°08' E 013°22'0 0.0
2018-Nov-02 12:28N 38°08' E 013°22'0 0.0
2018-Nov-02 12:01N 38°08' E 013°22'0 0.0
2018-Nov-02 11:58N 38°08' E 013°22'0 0.0
2018-Nov-02 11:28N 38°08' E 013°22'0 0.0
2018-Nov-02 11:01N 38°08' E 013°22'0 0.0
2018-Nov-02 10:58N 38°08' E 013°22'0 0.0
2018-Nov-02 10:28N 38°08' E 013°22'0 0.0
2018-Nov-02 10:01N 38°08' E 013°22'0 0.0
2018-Nov-02 09:58N 38°08' E 013°22'0 0.0
2018-Nov-02 09:28N 38°08' E 013°22'0 0.0
2018-Nov-02 09:01N 38°08' E 013°22'0 0.0
2018-Nov-02 08:55N 38°08' E 013°22'0 0.0
2018-Nov-02 08:28N 38°08' E 013°22'0 0.0
2018-Nov-02 08:01N 38°08' E 013°22'0 0.0
2018-Nov-02 07:58N 38°08' E 013°22'0 0.0
2018-Nov-02 07:28N 38°08' E 013°22'0 0.0
2018-Nov-02 06:40N 38°08' E 013°22'0 0.0
2018-Nov-02 06:28N 38°08' E 013°22'0 0.0
2018-Nov-02 06:01N 38°08' E 013°22'0 0.0
2018-Nov-02 05:58N 38°08' E 013°22'0 0.0
2018-Nov-02 05:28N 38°08' E 013°22'0 1.2
2018-Nov-02 05:03N 38°07' E 013°23'0 5.9
2018-Nov-02 05:00N 38°07' E 013°23'3 7.0
2018-Nov-02 04:30N 38°11' E 013°25'3 7.3
2018-Nov-02 04:03N 38°14' E 013°23'0 7.7
2018-Nov-02 04:00N 38°14' E 013°23'4 7.1
2018-Nov-02 03:30N 38°17' E 013°21'3 7.5
2018-Nov-02 03:03N 38°17' E 013°17'0 8.2
2018-Nov-02 03:00N 38°17' E 013°16'4 8.2
2018-Nov-02 02:30N 38°15' E 013°12'4 8.1
2018-Nov-02 02:02N 38°15' E 013°07'0 8.1
2018-Nov-02 02:00N 38°15' E 013°06'4 8.0
2018-Nov-02 01:30N 38°15' E 013°01'4 8.2
2018-Nov-02 01:02N 38°14' E 012°57'0 8.1
2018-Nov-02 01:00N 38°14' E 012°56'1 8.1
2018-Nov-02 00:56N 38°14' E 012°55'3 8.0
2018-Nov-02 00:32N 38°14' E 012°51'0 7.9
2018-Nov-02 00:30N 38°14' E 012°51'  

Dump ship's entire track history